sensor_id;sensor_type;location;lat;lon;timestamp;pressure;altitude;pressure_sealevel;temperature;humidity
78892;BME280;68368;51.728;5.248;2023-04-27T00:01:04;102108.80;;;3.14;75.89
78892;BME280;68368;51.728;5.248;2023-04-27T00:03:09;102114.20;;;3.13;76.17
78892;BME280;68368;51.728;5.248;2023-04-27T00:05:11;102109.48;;;3.13;76.02
78892;BME280;68368;51.728;5.248;2023-04-27T00:07:13;102107.39;;;3.13;76.41
78892;BME280;68368;51.728;5.248;2023-04-27T00:09:15;102106.33;;;3.13;76.57
78892;BME280;68368;51.728;5.248;2023-04-27T00:11:17;102111.58;;;3.13;76.26
78892;BME280;68368;51.728;5.248;2023-04-27T00:13:19;102112.09;;;3.12;76.67
78892;BME280;68368;51.728;5.248;2023-04-27T00:15:21;102116.84;;;3.13;76.34
78892;BME280;68368;51.728;5.248;2023-04-27T00:17:24;102113.98;;;3.11;76.29
78892;BME280;68368;51.728;5.248;2023-04-27T00:19:26;102111.58;;;3.08;76.17
78892;BME280;68368;51.728;5.248;2023-04-27T00:21:28;102112.83;;;3.05;76.32
78892;BME280;68368;51.728;5.248;2023-04-27T00:23:32;102115.33;;;3.02;76.58
78892;BME280;68368;51.728;5.248;2023-04-27T00:25:34;102114.59;;;3.01;76.63
78892;BME280;68368;51.728;5.248;2023-04-27T00:27:37;102113.77;;;2.98;76.58
78892;BME280;68368;51.728;5.248;2023-04-27T00:29:39;102116.67;;;2.96;76.50
78892;BME280;68368;51.728;5.248;2023-04-27T00:31:45;102118.57;;;2.95;76.67
78892;BME280;68368;51.728;5.248;2023-04-27T00:33:47;102119.48;;;2.96;76.62
78892;BME280;68368;51.728;5.248;2023-04-27T00:35:50;102120.55;;;2.96;76.99
78892;BME280;68368;51.728;5.248;2023-04-27T00:37:54;102123.16;;;2.96;76.48
78892;BME280;68368;51.728;5.248;2023-04-27T00:39:56;102122.95;;;2.95;76.73
78892;BME280;68368;51.728;5.248;2023-04-27T00:41:58;102119.90;;;2.93;76.57
78892;BME280;68368;51.728;5.248;2023-04-27T00:44:01;102119.82;;;2.91;76.47
78892;BME280;68368;51.728;5.248;2023-04-27T00:46:03;102118.11;;;2.88;76.47
78892;BME280;68368;51.728;5.248;2023-04-27T00:48:06;102117.00;;;2.87;76.96
78892;BME280;68368;51.728;5.248;2023-04-27T00:50:10;102112.81;;;2.87;76.63
78892;BME280;68368;51.728;5.248;2023-04-27T00:52:12;102105.43;;;2.87;76.55
78892;BME280;68368;51.728;5.248;2023-04-27T00:54:17;102108.95;;;2.87;77.21
78892;BME280;68368;51.728;5.248;2023-04-27T00:56:19;102103.85;;;2.87;77.30
78892;BME280;68368;51.728;5.248;2023-04-27T00:58:21;102101.73;;;2.87;77.17
78892;BME280;68368;51.728;5.248;2023-04-27T01:00:24;102107.00;;;2.87;76.94
78892;BME280;68368;51.728;5.248;2023-04-27T01:02:27;102110.85;;;2.87;77.07
78892;BME280;68368;51.728;5.248;2023-04-27T01:04:29;102103.84;;;2.86;77.10
78892;BME280;68368;51.728;5.248;2023-04-27T01:06:33;102104.89;;;2.87;76.69
78892;BME280;68368;51.728;5.248;2023-04-27T01:08:37;102104.73;;;2.87;77.18
78892;BME280;68368;51.728;5.248;2023-04-27T01:10:40;102107.20;;;2.87;77.16
78892;BME280;68368;51.728;5.248;2023-04-27T01:12:44;102100.88;;;2.87;77.13
78892;BME280;68368;51.728;5.248;2023-04-27T01:14:47;102101.75;;;2.87;77.27
78892;BME280;68368;51.728;5.248;2023-04-27T01:16:49;102101.02;;;2.86;77.20
78892;BME280;68368;51.728;5.248;2023-04-27T01:18:51;102105.16;;;2.85;76.80
78892;BME280;68368;51.728;5.248;2023-04-27T01:20:56;102101.58;;;2.83;77.08
78892;BME280;68368;51.728;5.248;2023-04-27T01:22:58;102104.17;;;2.82;76.98
78892;BME280;68368;51.728;5.248;2023-04-27T01:25:01;102100.96;;;2.77;76.65
78892;BME280;68368;51.728;5.248;2023-04-27T01:27:05;102103.05;;;2.76;77.07
78892;BME280;68368;51.728;5.248;2023-04-27T01:29:07;102101.65;;;2.72;76.98
78892;BME280;68368;51.728;5.248;2023-04-27T01:31:12;102104.62;;;2.68;76.99
78892;BME280;68368;51.728;5.248;2023-04-27T01:33:14;102101.81;;;2.63;76.82
78892;BME280;68368;51.728;5.248;2023-04-27T01:35:19;102093.59;;;2.60;77.11
78892;BME280;68368;51.728;5.248;2023-04-27T01:37:20;102089.59;;;2.56;77.23
78892;BME280;68368;51.728;5.248;2023-04-27T01:39:23;102093.93;;;2.56;77.12
78892;BME280;68368;51.728;5.248;2023-04-27T01:41:26;102091.64;;;2.56;77.46
78892;BME280;68368;51.728;5.248;2023-04-27T01:43:28;102090.82;;;2.56;77.70
78892;BME280;68368;51.728;5.248;2023-04-27T01:45:30;102085.94;;;2.57;77.50
78892;BME280;68368;51.728;5.248;2023-04-27T01:47:32;102084.86;;;2.57;78.01
78892;BME280;68368;51.728;5.248;2023-04-27T01:49:34;102083.67;;;2.57;77.66
78892;BME280;68368;51.728;5.248;2023-04-27T01:51:36;102081.39;;;2.57;77.82
78892;BME280;68368;51.728;5.248;2023-04-27T01:53:39;102077.13;;;2.60;77.69
78892;BME280;68368;51.728;5.248;2023-04-27T01:55:42;102081.02;;;2.65;77.22
78892;BME280;68368;51.728;5.248;2023-04-27T01:57:46;102082.27;;;2.65;76.99
78892;BME280;68368;51.728;5.248;2023-04-27T01:59:48;102086.38;;;2.68;76.83
78892;BME280;68368;51.728;5.248;2023-04-27T02:01:53;102084.52;;;2.69;76.82
78892;BME280;68368;51.728;5.248;2023-04-27T02:03:55;102084.92;;;2.70;76.51
78892;BME280;68368;51.728;5.248;2023-04-27T02:05:56;102082.97;;;2.70;76.43
78892;BME280;68368;51.728;5.248;2023-04-27T02:08:01;102078.13;;;2.71;76.41
78892;BME280;68368;51.728;5.248;2023-04-27T02:10:05;102072.77;;;2.69;76.20
78892;BME280;68368;51.728;5.248;2023-04-27T02:12:15;102074.27;;;2.67;76.51
78892;BME280;68368;51.728;5.248;2023-04-27T02:14:17;102074.61;;;2.67;76.40
78892;BME280;68368;51.728;5.248;2023-04-27T02:16:19;102072.13;;;2.66;76.32
78892;BME280;68368;51.728;5.248;2023-04-27T02:18:21;102076.84;;;2.66;76.07
78892;BME280;68368;51.728;5.248;2023-04-27T02:20:28;102071.09;;;2.63;76.06
78892;BME280;68368;51.728;5.248;2023-04-27T02:22:30;102071.84;;;2.60;76.45
78892;BME280;68368;51.728;5.248;2023-04-27T02:24:32;102074.34;;;2.61;76.42
78892;BME280;68368;51.728;5.248;2023-04-27T02:26:36;102067.46;;;2.60;76.28
78892;BME280;68368;51.728;5.248;2023-04-27T02:28:38;102062.42;;;2.57;76.32
78892;BME280;68368;51.728;5.248;2023-04-27T02:30:40;102059.19;;;2.59;76.16
78892;BME280;68368;51.728;5.248;2023-04-27T02:32:44;102058.52;;;2.59;76.31
78892;BME280;68368;51.728;5.248;2023-04-27T02:34:49;102056.06;;;2.59;76.18
78892;BME280;68368;51.728;5.248;2023-04-27T02:36:51;102054.76;;;2.58;75.95
78892;BME280;68368;51.728;5.248;2023-04-27T02:38:53;102054.33;;;2.55;76.05
78892;BME280;68368;51.728;5.248;2023-04-27T02:40:56;102057.94;;;2.54;76.34
78892;BME280;68368;51.728;5.248;2023-04-27T02:42:59;102059.23;;;2.52;76.22
78892;BME280;68368;51.728;5.248;2023-04-27T02:45:05;102055.33;;;2.51;76.46
78892;BME280;68368;51.728;5.248;2023-04-27T02:47:07;102056.19;;;2.50;76.52
78892;BME280;68368;51.728;5.248;2023-04-27T02:49:09;102058.24;;;2.48;76.05
78892;BME280;68368;51.728;5.248;2023-04-27T02:51:12;102060.60;;;2.46;75.99
78892;BME280;68368;51.728;5.248;2023-04-27T02:53:15;102062.14;;;2.41;76.01
78892;BME280;68368;51.728;5.248;2023-04-27T02:55:17;102062.09;;;2.36;76.24
78892;BME280;68368;51.728;5.248;2023-04-27T02:57:22;102060.87;;;2.32;76.65
78892;BME280;68368;51.728;5.248;2023-04-27T02:59:24;102060.91;;;2.29;76.84
78892;BME280;68368;51.728;5.248;2023-04-27T03:01:26;102060.09;;;2.26;77.24
78892;BME280;68368;51.728;5.248;2023-04-27T03:03:28;102060.27;;;2.27;77.26
78892;BME280;68368;51.728;5.248;2023-04-27T03:05:34;102064.24;;;2.30;77.36
78892;BME280;68368;51.728;5.248;2023-04-27T03:07:38;102064.95;;;2.34;77.03
78892;BME280;68368;51.728;5.248;2023-04-27T03:09:41;102063.48;;;2.36;77.01
78892;BME280;68368;51.728;5.248;2023-04-27T03:11:43;102061.74;;;2.36;76.99
78892;BME280;68368;51.728;5.248;2023-04-27T03:13:47;102061.42;;;2.37;76.84
78892;BME280;68368;51.728;5.248;2023-04-27T03:15:50;102062.76;;;2.39;76.92
78892;BME280;68368;51.728;5.248;2023-04-27T03:17:52;102063.12;;;2.40;76.71
78892;BME280;68368;51.728;5.248;2023-04-27T03:19:54;102062.73;;;2.39;76.79
78892;BME280;68368;51.728;5.248;2023-04-27T03:21:56;102068.32;;;2.38;76.59
78892;BME280;68368;51.728;5.248;2023-04-27T03:23:59;102067.34;;;2.36;76.49
78892;BME280;68368;51.728;5.248;2023-04-27T03:26:05;102067.98;;;2.35;76.60
78892;BME280;68368;51.728;5.248;2023-04-27T03:28:10;102073.00;;;2.34;76.71
78892;BME280;68368;51.728;5.248;2023-04-27T03:30:14;102075.61;;;2.33;76.68
78892;BME280;68368;51.728;5.248;2023-04-27T03:32:20;102079.77;;;2.32;76.81
78892;BME280;68368;51.728;5.248;2023-04-27T03:34:23;102080.40;;;2.30;76.59
78892;BME280;68368;51.728;5.248;2023-04-27T03:36:25;102078.72;;;2.28;76.69
78892;BME280;68368;51.728;5.248;2023-04-27T03:38:27;102080.00;;;2.25;76.79
78892;BME280;68368;51.728;5.248;2023-04-27T03:40:29;102079.55;;;2.22;76.45
78892;BME280;68368;51.728;5.248;2023-04-27T03:42:31;102074.65;;;2.19;76.86
78892;BME280;68368;51.728;5.248;2023-04-27T03:44:33;102076.41;;;2.15;76.89
78892;BME280;68368;51.728;5.248;2023-04-27T03:46:36;102073.86;;;2.13;77.06
78892;BME280;68368;51.728;5.248;2023-04-27T03:48:41;102071.03;;;2.12;77.48
78892;BME280;68368;51.728;5.248;2023-04-27T03:50:48;102073.84;;;2.12;77.44
78892;BME280;68368;51.728;5.248;2023-04-27T03:52:50;102074.55;;;2.13;77.64
78892;BME280;68368;51.728;5.248;2023-04-27T03:54:52;102073.71;;;2.14;77.42
78892;BME280;68368;51.728;5.248;2023-04-27T03:56:53;102077.45;;;2.15;77.31
78892;BME280;68368;51.728;5.248;2023-04-27T03:58:56;102077.82;;;2.15;77.40
78892;BME280;68368;51.728;5.248;2023-04-27T04:00:58;102078.18;;;2.15;77.28
78892;BME280;68368;51.728;5.248;2023-04-27T04:03:01;102080.30;;;2.16;77.36
78892;BME280;68368;51.728;5.248;2023-04-27T04:05:03;102079.59;;;2.15;77.42
78892;BME280;68368;51.728;5.248;2023-04-27T04:07:05;102082.71;;;2.15;77.29
78892;BME280;68368;51.728;5.248;2023-04-27T04:09:09;102085.08;;;2.13;77.21
78892;BME280;68368;51.728;5.248;2023-04-27T04:11:11;102085.86;;;2.11;77.20
78892;BME280;68368;51.728;5.248;2023-04-27T04:13:13;102087.02;;;2.10;77.20
78892;BME280;68368;51.728;5.248;2023-04-27T04:15:15;102089.95;;;2.09;77.32
78892;BME280;68368;51.728;5.248;2023-04-27T04:17:17;102089.31;;;2.10;77.52
78892;BME280;68368;51.728;5.248;2023-04-27T04:19:20;102092.16;;;2.11;77.64
78892;BME280;68368;51.728;5.248;2023-04-27T04:21:22;102085.98;;;2.14;77.67
78892;BME280;68368;51.728;5.248;2023-04-27T04:23:24;102087.69;;;2.16;77.39
78892;BME280;68368;51.728;5.248;2023-04-27T04:25:27;102088.73;;;2.16;77.14
78892;BME280;68368;51.728;5.248;2023-04-27T04:27:31;102092.09;;;2.17;77.37
78892;BME280;68368;51.728;5.248;2023-04-27T04:29:34;102090.23;;;2.18;77.07
78892;BME280;68368;51.728;5.248;2023-04-27T04:31:36;102091.09;;;2.22;77.65
78892;BME280;68368;51.728;5.248;2023-04-27T04:33:39;102093.33;;;2.29;77.59
78892;BME280;68368;51.728;5.248;2023-04-27T04:35:41;102098.30;;;2.35;77.42
78892;BME280;68368;51.728;5.248;2023-04-27T04:37:44;102098.54;;;2.40;77.18
78892;BME280;68368;51.728;5.248;2023-04-27T04:39:46;102101.04;;;2.45;77.02
78892;BME280;68368;51.728;5.248;2023-04-27T04:41:48;102101.91;;;2.49;76.90
78892;BME280;68368;51.728;5.248;2023-04-27T04:43:50;102101.53;;;2.53;76.62
78892;BME280;68368;51.728;5.248;2023-04-27T04:45:54;102099.44;;;2.57;76.68
78892;BME280;68368;51.728;5.248;2023-04-27T04:47:57;102101.80;;;2.63;76.23
78892;BME280;68368;51.728;5.248;2023-04-27T04:50:00;102105.40;;;2.69;75.82
78892;BME280;68368;51.728;5.248;2023-04-27T04:52:03;102109.54;;;2.76;75.76
78892;BME280;68368;51.728;5.248;2023-04-27T04:54:05;102110.41;;;2.80;75.52
78892;BME280;68368;51.728;5.248;2023-04-27T04:56:11;102115.14;;;2.88;75.60
78892;BME280;68368;51.728;5.248;2023-04-27T04:58:15;102110.09;;;3.37;74.58
78892;BME280;68368;51.728;5.248;2023-04-27T05:00:17;102107.98;;;3.87;73.56
78892;BME280;68368;51.728;5.248;2023-04-27T05:02:19;102104.02;;;4.32;72.54
78892;BME280;68368;51.728;5.248;2023-04-27T05:04:22;102104.84;;;5.24;69.96
78892;BME280;68368;51.728;5.248;2023-04-27T05:06:24;102105.79;;;6.13;67.81
78892;BME280;68368;51.728;5.248;2023-04-27T05:08:26;102111.64;;;6.93;65.56
78892;BME280;68368;51.728;5.248;2023-04-27T05:10:28;102105.41;;;7.65;63.55
78892;BME280;68368;51.728;5.248;2023-04-27T05:12:30;102105.09;;;8.34;62.53
78892;BME280;68368;51.728;5.248;2023-04-27T05:14:35;102108.65;;;8.82;59.82
78892;BME280;68368;51.728;5.248;2023-04-27T05:16:36;102110.54;;;9.10;59.08
78892;BME280;68368;51.728;5.248;2023-04-27T05:18:39;102107.77;;;9.14;57.72
78892;BME280;68368;51.728;5.248;2023-04-27T05:20:42;102107.36;;;9.21;56.04
78892;BME280;68368;51.728;5.248;2023-04-27T05:22:44;102104.30;;;9.53;55.81
78892;BME280;68368;51.728;5.248;2023-04-27T05:24:47;102102.39;;;10.10;54.17
78892;BME280;68368;51.728;5.248;2023-04-27T05:26:55;102105.20;;;10.68;53.41
78892;BME280;68368;51.728;5.248;2023-04-27T05:28:57;102103.10;;;11.36;50.82
78892;BME280;68368;51.728;5.248;2023-04-27T05:31:02;102100.28;;;12.01;49.80
78892;BME280;68368;51.728;5.248;2023-04-27T05:33:04;102104.59;;;12.73;47.94
78892;BME280;68368;51.728;5.248;2023-04-27T05:35:08;102109.44;;;13.27;46.77
78892;BME280;68368;51.728;5.248;2023-04-27T05:37:10;102103.88;;;13.61;44.95
78892;BME280;68368;51.728;5.248;2023-04-27T05:39:12;102106.63;;;13.92;44.30
78892;BME280;68368;51.728;5.248;2023-04-27T05:41:14;102115.41;;;14.27;43.38
78892;BME280;68368;51.728;5.248;2023-04-27T05:43:16;102118.45;;;14.61;42.24
78892;BME280;68368;51.728;5.248;2023-04-27T05:45:19;102115.64;;;14.16;41.85
78892;BME280;68368;51.728;5.248;2023-04-27T05:47:22;102114.14;;;13.87;42.52
78892;BME280;68368;51.728;5.248;2023-04-27T05:49:26;102117.96;;;13.58;42.50
78892;BME280;68368;51.728;5.248;2023-04-27T05:51:29;102114.54;;;13.73;41.96
78892;BME280;68368;51.728;5.248;2023-04-27T05:53:32;102108.45;;;13.81;41.21
78892;BME280;68368;51.728;5.248;2023-04-27T05:55:39;102111.27;;;13.92;41.61
78892;BME280;68368;51.728;5.248;2023-04-27T05:57:42;102110.83;;;14.12;40.70
78892;BME280;68368;51.728;5.248;2023-04-27T05:59:46;102109.04;;;14.15;39.53
78892;BME280;68368;51.728;5.248;2023-04-27T06:01:49;102111.21;;;14.46;40.25
78892;BME280;68368;51.728;5.248;2023-04-27T06:03:52;102111.20;;;15.00;38.28
78892;BME280;68368;51.728;5.248;2023-04-27T06:05:55;102108.98;;;15.66;37.97
78892;BME280;68368;51.728;5.248;2023-04-27T06:07:57;102112.02;;;16.40;37.69
78892;BME280;68368;51.728;5.248;2023-04-27T06:10:01;102108.53;;;17.07;36.66
78892;BME280;68368;51.728;5.248;2023-04-27T06:12:04;102113.34;;;17.70;35.52
78892;BME280;68368;51.728;5.248;2023-04-27T06:14:07;102112.98;;;18.24;34.92
78892;BME280;68368;51.728;5.248;2023-04-27T06:16:09;102109.96;;;18.78;33.65
78892;BME280;68368;51.728;5.248;2023-04-27T06:18:19;102111.38;;;19.16;31.97
78892;BME280;68368;51.728;5.248;2023-04-27T06:20:24;102107.39;;;19.37;30.40
78892;BME280;68368;51.728;5.248;2023-04-27T06:22:28;102108.02;;;19.55;31.22
78892;BME280;68368;51.728;5.248;2023-04-27T06:24:31;102111.69;;;19.59;29.06
78892;BME280;68368;51.728;5.248;2023-04-27T06:26:33;102111.91;;;19.64;29.87
78892;BME280;68368;51.728;5.248;2023-04-27T06:28:38;102121.30;;;19.84;30.31
78892;BME280;68368;51.728;5.248;2023-04-27T06:30:40;102112.94;;;19.99;30.16
78892;BME280;68368;51.728;5.248;2023-04-27T06:32:42;102119.58;;;19.88;28.73
78892;BME280;68368;51.728;5.248;2023-04-27T06:34:45;102115.98;;;19.87;28.59
78892;BME280;68368;51.728;5.248;2023-04-27T06:36:48;102113.14;;;19.66;28.06
78892;BME280;68368;51.728;5.248;2023-04-27T06:38:50;102110.05;;;19.39;29.39
78892;BME280;68368;51.728;5.248;2023-04-27T06:40:53;102115.33;;;19.16;29.29
78892;BME280;68368;51.728;5.248;2023-04-27T06:43:00;102113.45;;;19.27;29.68
78892;BME280;68368;51.728;5.248;2023-04-27T06:45:06;102109.55;;;19.31;28.48
78892;BME280;68368;51.728;5.248;2023-04-27T06:47:08;102111.55;;;19.37;28.30
78892;BME280;68368;51.728;5.248;2023-04-27T06:49:11;102112.32;;;19.49;28.92
78892;BME280;68368;51.728;5.248;2023-04-27T06:51:16;102110.23;;;19.74;29.01
78892;BME280;68368;51.728;5.248;2023-04-27T06:53:20;102107.80;;;19.83;28.06
78892;BME280;68368;51.728;5.248;2023-04-27T06:55:22;102105.63;;;19.89;28.20
78892;BME280;68368;51.728;5.248;2023-04-27T06:57:24;102104.59;;;19.88;28.56
78892;BME280;68368;51.728;5.248;2023-04-27T06:59:26;102105.59;;;19.97;28.71
78892;BME280;68368;51.728;5.248;2023-04-27T07:01:28;102104.94;;;20.01;27.73
78892;BME280;68368;51.728;5.248;2023-04-27T07:03:33;102106.13;;;20.03;27.90
78892;BME280;68368;51.728;5.248;2023-04-27T07:05:35;102106.12;;;20.16;27.96
78892;BME280;68368;51.728;5.248;2023-04-27T07:07:38;102102.24;;;20.25;27.79
78892;BME280;68368;51.728;5.248;2023-04-27T07:09:40;102108.13;;;20.15;27.84
78892;BME280;68368;51.728;5.248;2023-04-27T07:11:42;102108.48;;;19.97;27.91
78892;BME280;68368;51.728;5.248;2023-04-27T07:13:45;102104.45;;;20.05;27.68
78892;BME280;68368;51.728;5.248;2023-04-27T07:15:50;102101.80;;;19.98;27.60
78892;BME280;68368;51.728;5.248;2023-04-27T07:17:54;102102.21;;;19.76;28.07
78892;BME280;68368;51.728;5.248;2023-04-27T07:19:56;102103.32;;;19.62;28.57
78892;BME280;68368;51.728;5.248;2023-04-27T07:21:59;102097.59;;;19.68;28.79
78892;BME280;68368;51.728;5.248;2023-04-27T07:24:01;102099.98;;;19.73;28.64
78892;BME280;68368;51.728;5.248;2023-04-27T07:26:03;102100.23;;;19.63;28.62
78892;BME280;68368;51.728;5.248;2023-04-27T07:28:05;102103.49;;;19.62;28.55
78892;BME280;68368;51.728;5.248;2023-04-27T07:30:10;102107.60;;;19.50;28.76
78892;BME280;68368;51.728;5.248;2023-04-27T07:32:12;102104.88;;;19.44;28.87
78892;BME280;68368;51.728;5.248;2023-04-27T07:34:14;102104.17;;;19.44;29.02
78892;BME280;68368;51.728;5.248;2023-04-27T07:36:17;102099.35;;;19.49;28.77
78892;BME280;68368;51.728;5.248;2023-04-27T07:38:19;102103.69;;;19.21;29.32
78892;BME280;68368;51.728;5.248;2023-04-27T07:40:22;102109.50;;;18.90;29.88
78892;BME280;68368;51.728;5.248;2023-04-27T07:42:24;102108.52;;;18.78;29.69
78892;BME280;68368;51.728;5.248;2023-04-27T07:44:29;102110.17;;;18.69;29.83
78892;BME280;68368;51.728;5.248;2023-04-27T07:46:30;102108.84;;;18.48;29.63
78892;BME280;68368;51.728;5.248;2023-04-27T07:48:34;102109.23;;;18.14;30.25
78892;BME280;68368;51.728;5.248;2023-04-27T07:50:37;102110.89;;;17.95;30.31
78892;BME280;68368;51.728;5.248;2023-04-27T07:52:39;102113.33;;;17.60;30.80
78892;BME280;68368;51.728;5.248;2023-04-27T07:54:42;102115.09;;;17.62;31.49
78892;BME280;68368;51.728;5.248;2023-04-27T07:56:45;102118.08;;;17.85;31.54
78892;BME280;68368;51.728;5.248;2023-04-27T07:58:47;102108.03;;;18.03;31.25
78892;BME280;68368;51.728;5.248;2023-04-27T08:00:49;102111.50;;;18.00;31.26
78892;BME280;68368;51.728;5.248;2023-04-27T08:02:52;102111.15;;;17.91;31.53
78892;BME280;68368;51.728;5.248;2023-04-27T08:04:55;102110.40;;;18.01;31.06
78892;BME280;68368;51.728;5.248;2023-04-27T08:06:58;102108.45;;;17.91;31.32
78892;BME280;68368;51.728;5.248;2023-04-27T08:09:00;102107.49;;;17.94;31.54
78892;BME280;68368;51.728;5.248;2023-04-27T08:11:03;102110.78;;;17.91;31.41
78892;BME280;68368;51.728;5.248;2023-04-27T08:13:05;102114.57;;;17.81;31.47
78892;BME280;68368;51.728;5.248;2023-04-27T08:15:10;102117.27;;;17.71;31.75
78892;BME280;68368;51.728;5.248;2023-04-27T08:17:12;102115.67;;;17.69;31.66
78892;BME280;68368;51.728;5.248;2023-04-27T08:19:14;102117.23;;;17.63;31.07
78892;BME280;68368;51.728;5.248;2023-04-27T08:21:19;102119.76;;;17.53;31.49
78892;BME280;68368;51.728;5.248;2023-04-27T08:23:22;102120.31;;;17.51;31.70
78892;BME280;68368;51.728;5.248;2023-04-27T08:25:27;102112.70;;;17.56;31.53
78892;BME280;68368;51.728;5.248;2023-04-27T08:27:29;102112.42;;;17.61;31.69
78892;BME280;68368;51.728;5.248;2023-04-27T08:29:32;102110.78;;;17.71;32.13
78892;BME280;68368;51.728;5.248;2023-04-27T08:31:34;102108.69;;;17.79;31.77
78892;BME280;68368;51.728;5.248;2023-04-27T08:33:40;102098.11;;;17.87;31.82
78892;BME280;68368;51.728;5.248;2023-04-27T08:35:42;102094.45;;;17.99;30.69
78892;BME280;68368;51.728;5.248;2023-04-27T08:37:45;102094.70;;;18.04;30.72
78892;BME280;68368;51.728;5.248;2023-04-27T08:39:47;102089.46;;;18.06;30.94
78892;BME280;68368;51.728;5.248;2023-04-27T08:41:51;102089.10;;;18.05;31.28
78892;BME280;68368;51.728;5.248;2023-04-27T08:43:54;102089.41;;;18.00;31.34
78892;BME280;68368;51.728;5.248;2023-04-27T08:45:57;102089.52;;;17.94;31.19
78892;BME280;68368;51.728;5.248;2023-04-27T08:48:00;102086.63;;;17.87;31.37
78892;BME280;68368;51.728;5.248;2023-04-27T08:50:04;102083.60;;;17.76;30.35
78892;BME280;68368;51.728;5.248;2023-04-27T08:52:11;102084.86;;;17.85;31.32
78892;BME280;68368;51.728;5.248;2023-04-27T08:54:13;102092.42;;;18.01;31.26
78892;BME280;68368;51.728;5.248;2023-04-27T08:56:15;102093.59;;;18.06;30.79
78892;BME280;68368;51.728;5.248;2023-04-27T08:58:20;102095.73;;;18.15;30.31
78892;BME280;68368;51.728;5.248;2023-04-27T09:00:37;102095.90;;;18.32;29.86
78892;BME280;68368;51.728;5.248;2023-04-27T09:02:54;102090.95;;;18.44;29.56
78892;BME280;68368;51.728;5.248;2023-04-27T09:04:56;102092.73;;;18.53;29.37
78892;BME280;68368;51.728;5.248;2023-04-27T09:07:09;102093.08;;;18.61;29.61
78892;BME280;68368;51.728;5.248;2023-04-27T09:09:21;102094.58;;;18.74;30.16
78892;BME280;68368;51.728;5.248;2023-04-27T09:11:35;102092.91;;;18.99;30.29
78892;BME280;68368;51.728;5.248;2023-04-27T09:13:38;102091.60;;;19.15;29.24
78892;BME280;68368;51.728;5.248;2023-04-27T09:15:45;102086.35;;;19.23;28.84
78892;BME280;68368;51.728;5.248;2023-04-27T09:17:53;102086.21;;;19.14;27.44
78892;BME280;68368;51.728;5.248;2023-04-27T09:20:05;102097.11;;;19.03;27.30
78892;BME280;68368;51.728;5.248;2023-04-27T09:22:09;102097.42;;;18.91;27.31
78892;BME280;68368;51.728;5.248;2023-04-27T09:24:16;102095.76;;;18.78;27.33
78892;BME280;68368;51.728;5.248;2023-04-27T09:26:20;102095.90;;;18.80;27.92
78892;BME280;68368;51.728;5.248;2023-04-27T09:28:23;102093.13;;;18.74;27.25
78892;BME280;68368;51.728;5.248;2023-04-27T09:30:25;102089.77;;;18.72;27.19
78892;BME280;68368;51.728;5.248;2023-04-27T09:32:31;102091.11;;;18.77;27.21
78892;BME280;68368;51.728;5.248;2023-04-27T09:34:54;102086.63;;;18.84;27.86
78892;BME280;68368;51.728;5.248;2023-04-27T09:36:57;102085.66;;;18.79;27.94
78892;BME280;68368;51.728;5.248;2023-04-27T09:39:02;102082.01;;;18.73;28.02
78892;BME280;68368;51.728;5.248;2023-04-27T09:41:05;102071.02;;;18.74;27.90
78892;BME280;68368;51.728;5.248;2023-04-27T09:43:14;102073.89;;;18.74;27.84
78892;BME280;68368;51.728;5.248;2023-04-27T09:45:17;102076.09;;;18.65;29.00
78892;BME280;68368;51.728;5.248;2023-04-27T09:47:19;102075.51;;;18.66;29.03
78892;BME280;68368;51.728;5.248;2023-04-27T09:49:25;102074.38;;;18.53;27.98
78892;BME280;68368;51.728;5.248;2023-04-27T09:51:27;102072.91;;;18.54;28.30
78892;BME280;68368;51.728;5.248;2023-04-27T09:53:35;102074.09;;;18.58;28.24
78892;BME280;68368;51.728;5.248;2023-04-27T09:55:40;102072.24;;;18.67;28.85
78892;BME280;68368;51.728;5.248;2023-04-27T09:57:54;102074.54;;;18.77;28.82
78892;BME280;68368;51.728;5.248;2023-04-27T10:00:09;102070.54;;;18.79;28.96
78892;BME280;68368;51.728;5.248;2023-04-27T10:02:19;102069.87;;;18.85;27.95
78892;BME280;68368;51.728;5.248;2023-04-27T10:04:48;102063.16;;;18.94;28.20
78892;BME280;68368;51.728;5.248;2023-04-27T10:07:07;102064.95;;;18.94;27.13
78892;BME280;68368;51.728;5.248;2023-04-27T10:09:13;102063.28;;;18.89;26.45
78892;BME280;68368;51.728;5.248;2023-04-27T10:11:15;102066.31;;;18.83;25.98
78892;BME280;68368;51.728;5.248;2023-04-27T10:13:22;102069.58;;;18.75;26.65
78892;BME280;68368;51.728;5.248;2023-04-27T10:15:38;102070.15;;;18.72;27.04
78892;BME280;68368;51.728;5.248;2023-04-27T10:17:47;102076.02;;;18.60;26.41
78892;BME280;68368;51.728;5.248;2023-04-27T10:19:57;102074.90;;;18.46;26.97
78892;BME280;68368;51.728;5.248;2023-04-27T10:22:02;102075.55;;;18.48;27.09
78892;BME280;68368;51.728;5.248;2023-04-27T10:24:07;102074.26;;;18.43;26.26
78892;BME280;68368;51.728;5.248;2023-04-27T10:26:12;102072.78;;;18.29;26.78
78892;BME280;68368;51.728;5.248;2023-04-27T10:28:16;102076.17;;;18.21;27.40
78892;BME280;68368;51.728;5.248;2023-04-27T10:30:20;102077.28;;;18.20;27.71
78892;BME280;68368;51.728;5.248;2023-04-27T10:32:26;102071.31;;;18.22;27.64
78892;BME280;68368;51.728;5.248;2023-04-27T10:34:34;102069.32;;;18.15;27.08
78892;BME280;68368;51.728;5.248;2023-04-27T10:36:37;102062.45;;;18.08;27.88
78892;BME280;68368;51.728;5.248;2023-04-27T10:38:42;102061.86;;;18.11;27.82
78892;BME280;68368;51.728;5.248;2023-04-27T10:40:53;102071.09;;;18.07;27.74
78892;BME280;68368;51.728;5.248;2023-04-27T10:42:55;102063.67;;;18.01;27.12
78892;BME280;68368;51.728;5.248;2023-04-27T10:44:57;102061.11;;;17.87;27.13
78892;BME280;68368;51.728;5.248;2023-04-27T10:47:11;102060.61;;;17.85;28.50
78892;BME280;68368;51.728;5.248;2023-04-27T10:49:14;102057.59;;;17.92;28.72
78892;BME280;68368;51.728;5.248;2023-04-27T10:51:19;102052.82;;;17.97;29.00